createdAt,value
2022-11-21T00:01:23.918Z,14.04
2022-11-21T00:03:51.668Z,14.54
2022-11-21T00:06:19.086Z,14.61
2022-11-21T00:08:51.655Z,14.59
2022-11-21T00:11:22.239Z,14.63
2022-11-21T00:13:49.164Z,14.56
2022-11-21T00:16:16.910Z,14.61
2022-11-21T00:18:44.611Z,14.73
2022-11-21T00:21:16.780Z,14.39
2022-11-21T00:23:44.900Z,14.46
2022-11-21T00:26:14.398Z,14.35
2022-11-21T00:28:42.119Z,14.41
2022-11-21T00:31:10.777Z,14.47
2022-11-21T00:33:39.287Z,14.37
2022-11-21T00:36:10.645Z,14.49
2022-11-21T00:38:38.350Z,14.64
2022-11-21T00:41:06.259Z,14.77
2022-11-21T00:43:33.686Z,14.67
2022-11-21T00:46:03.331Z,14.64
2022-11-21T00:48:33.460Z,14.42
2022-11-21T00:51:31.099Z,14.26
2022-11-21T00:54:16.310Z,14.10
2022-11-21T00:56:44.247Z,14.13
2022-11-21T00:59:15.204Z,14.08
2022-11-21T01:01:49.565Z,14.08
2022-11-21T01:09:50.997Z,13.98
2022-11-21T01:15:07.688Z,14.32
2022-11-21T01:17:34.982Z,14.24
2022-11-21T01:20:03.330Z,14.05
2022-11-21T01:22:30.784Z,14.17
2022-11-21T01:24:57.972Z,14.24
2022-11-21T01:27:24.927Z,14.33
2022-11-21T01:29:54.447Z,14.13
2022-11-21T01:32:21.472Z,14.18
2022-11-21T01:34:51.291Z,14.18
2022-11-21T01:37:18.101Z,14.11
2022-11-21T01:39:45.369Z,13.98
2022-11-21T01:42:13.666Z,14.21
2022-11-21T01:44:56.806Z,14.12
2022-11-21T01:47:28.048Z,14.06
2022-11-21T01:49:57.682Z,14.13
2022-11-21T01:52:32.813Z,14.07
2022-11-21T01:55:10.593Z,14.18
2022-11-21T01:57:44.374Z,14.03
2022-11-21T02:00:31.806Z,14.07
2022-11-21T02:03:02.951Z,13.98
2022-11-21T02:05:33.406Z,13.99
2022-11-21T02:08:08.894Z,14.09
2022-11-21T02:10:40.088Z,13.98
2022-11-21T02:13:06.837Z,13.97
2022-11-21T02:15:33.776Z,13.90
2022-11-21T02:18:00.602Z,13.95
2022-11-21T02:20:29.219Z,13.98
2022-11-21T02:23:10.041Z,14.13
2022-11-21T02:25:43.322Z,14.17
2022-11-21T02:28:14.880Z,14.12
2022-11-21T02:30:52.433Z,14.12
2022-11-21T02:33:19.813Z,14.31
2022-11-21T02:36:14.468Z,14.30
2022-11-21T02:38:46.518Z,14.38
2022-11-21T02:41:26.795Z,14.36
2022-11-21T02:44:10.228Z,14.40
2022-11-21T02:46:47.288Z,14.42
2022-11-21T02:49:17.783Z,14.59
2022-11-21T02:51:49.228Z,14.42
2022-11-21T02:54:16.876Z,14.42
2022-11-21T02:56:44.628Z,14.40
2022-11-21T02:59:12.021Z,14.31
2022-11-21T03:01:38.991Z,14.56
2022-11-21T03:04:06.119Z,14.47
2022-11-21T03:06:32.938Z,14.37
2022-11-21T03:09:00.240Z,14.51
2022-11-21T03:11:27.378Z,14.31
2022-11-21T03:13:57.170Z,14.21
2022-11-21T03:16:24.046Z,14.29
2022-11-21T03:18:51.256Z,14.25
2022-11-21T03:21:18.369Z,14.30
2022-11-21T03:23:45.672Z,14.32
2022-11-21T03:26:12.681Z,14.27
2022-11-21T03:28:41.687Z,14.19
2022-11-21T03:34:14.916Z,14.12
2022-11-21T03:37:01.246Z,14.25
2022-11-21T03:45:48.653Z,14.27
2022-11-21T03:48:17.560Z,14.31
2022-11-21T03:50:44.794Z,14.35
2022-11-21T03:53:18.370Z,14.48
2022-11-21T04:09:12.425Z,14.46
2022-11-21T04:11:42.489Z,14.31
2022-11-21T04:14:09.284Z,14.39
2022-11-21T04:16:39.383Z,14.35
2022-11-21T04:19:06.469Z,14.30
2022-11-21T04:21:33.224Z,14.51
2022-11-21T04:24:00.305Z,14.47
2022-11-21T04:26:27.197Z,14.35
2022-11-21T04:28:54.214Z,14.39
2022-11-21T04:31:21.370Z,14.38
2022-11-21T04:33:48.396Z,14.51
2022-11-21T04:36:15.799Z,14.68
2022-11-21T04:38:42.614Z,14.69
2022-11-21T04:41:09.469Z,14.76
2022-11-21T04:43:37.170Z,14.58
2022-11-21T04:46:04.167Z,14.60
2022-11-21T04:48:32.713Z,14.59
2022-11-21T04:50:59.844Z,14.65
2022-11-21T04:53:26.670Z,14.43
2022-11-21T04:55:53.954Z,14.48
2022-11-21T04:58:20.769Z,14.42
2022-11-21T05:00:47.790Z,14.32
2022-11-21T05:03:14.784Z,14.41
2022-11-21T05:05:42.046Z,14.59
2022-11-21T05:08:08.842Z,14.50
2022-11-21T05:10:55.807Z,14.42
2022-11-21T05:13:25.597Z,14.18
2022-11-21T05:16:00.003Z,14.32
2022-11-21T05:18:27.435Z,14.46
2022-11-21T05:20:54.642Z,14.51
2022-11-21T05:23:22.080Z,14.71
2022-11-21T05:25:49.187Z,14.55
2022-11-21T05:28:15.896Z,14.77
2022-11-21T05:30:42.974Z,14.66
2022-11-21T05:33:10.568Z,14.74
2022-11-21T05:35:42.924Z,14.76
2022-11-21T05:38:13.813Z,14.84
2022-11-21T05:40:41.074Z,14.69
2022-11-21T05:43:34.180Z,14.73
2022-11-21T05:46:01.012Z,14.68
2022-11-21T05:48:39.681Z,14.45
2022-11-21T05:51:06.965Z,14.59
2022-11-21T05:53:43.934Z,14.64
2022-11-21T05:56:16.514Z,14.63
2022-11-21T05:58:43.715Z,14.21
2022-11-21T06:03:59.035Z,14.44
2022-11-21T06:06:33.168Z,14.28
2022-11-21T06:09:04.393Z,14.07
2022-11-21T06:11:33.267Z,14.14
2022-11-21T06:14:00.521Z,14.10
2022-11-21T06:16:27.424Z,14.52
2022-11-21T06:18:58.398Z,14.52
2022-11-21T06:21:29.924Z,14.87
2022-11-21T06:23:59.103Z,14.79
2022-11-21T06:26:32.670Z,14.64
2022-11-21T06:28:59.856Z,14.66
2022-11-21T06:31:27.787Z,14.53
2022-11-21T06:33:57.044Z,14.73
2022-11-21T06:36:24.427Z,14.84
2022-11-21T06:38:56.123Z,14.61
2022-11-21T06:41:25.640Z,14.46
2022-11-21T06:43:54.616Z,14.62
2022-11-21T06:46:21.398Z,14.36
2022-11-21T06:48:48.982Z,14.46
2022-11-21T06:51:23.274Z,14.33
2022-11-21T06:53:58.597Z,14.50
2022-11-21T06:56:27.556Z,14.74
2022-11-21T06:58:54.698Z,14.58
2022-11-21T07:01:24.846Z,14.45
2022-11-21T07:09:34.852Z,14.58
2022-11-21T07:15:02.828Z,14.82
2022-11-21T07:17:30.899Z,14.66
2022-11-21T07:19:58.067Z,14.79
2022-11-21T07:22:31.389Z,14.75
2022-11-21T07:24:58.990Z,14.96
2022-11-21T07:27:27.673Z,14.92
2022-11-21T07:29:54.678Z,14.59
2022-11-21T07:32:22.497Z,14.96
2022-11-21T07:34:55.022Z,15.00
2022-11-21T07:37:21.915Z,14.96
2022-11-21T07:39:51.756Z,15.12
2022-11-21T07:42:18.589Z,15.18
2022-11-21T07:44:45.763Z,15.15
2022-11-21T07:47:12.981Z,14.86
2022-11-21T07:49:39.788Z,15.11
2022-11-21T07:52:07.731Z,15.11
2022-11-21T07:54:36.793Z,15.27
2022-11-21T07:57:03.804Z,15.13
2022-11-21T07:59:30.912Z,15.04
2022-11-21T08:01:57.794Z,14.86
2022-11-21T08:04:24.681Z,15.18
2022-11-21T08:06:54.215Z,15.13
2022-11-21T08:17:35.554Z,15.60
2022-11-21T08:20:02.830Z,15.31
2022-11-21T08:22:29.728Z,15.38
2022-11-21T08:24:59.004Z,15.55
2022-11-21T08:27:25.856Z,15.60
2022-11-21T08:29:52.563Z,15.59
2022-11-21T08:32:19.805Z,15.63
2022-11-21T08:34:47.796Z,15.73
2022-11-21T08:37:14.996Z,15.52
2022-11-21T08:39:44.857Z,15.71
2022-11-21T08:42:11.709Z,15.50
2022-11-21T08:44:41.827Z,15.68
2022-11-21T08:47:09.229Z,15.46
2022-11-21T08:49:36.398Z,15.40
2022-11-21T08:52:03.587Z,15.54
2022-11-21T08:54:34.048Z,15.49
2022-11-21T08:57:00.984Z,15.96
2022-11-21T08:59:27.767Z,15.60
2022-11-21T09:01:55.197Z,15.63
2022-11-21T09:04:22.049Z,15.65
2022-11-21T09:06:49.009Z,16.07
2022-11-21T09:09:19.402Z,16.08
2022-11-21T09:11:50.824Z,15.86
2022-11-21T09:14:36.423Z,15.95
2022-11-21T09:17:23.403Z,15.66
2022-11-21T09:19:50.441Z,15.94
2022-11-21T09:22:17.503Z,15.71
2022-11-21T09:24:46.992Z,16.07
2022-11-21T09:27:13.976Z,16.04
2022-11-21T09:29:41.033Z,16.22
2022-11-21T09:32:07.864Z,16.24
2022-11-21T09:34:55.495Z,16.34
2022-11-21T09:37:25.820Z,16.49
2022-11-21T09:39:53.865Z,16.31
2022-11-21T09:42:39.976Z,16.03
2022-11-21T09:45:55.572Z,16.15
2022-11-21T09:48:40.295Z,15.83
2022-11-21T09:51:13.125Z,15.91
2022-11-21T09:53:54.739Z,15.85
2022-11-21T09:56:26.463Z,15.87
2022-11-21T09:59:19.489Z,15.74
2022-11-21T10:01:48.239Z,15.66
2022-11-21T10:04:15.161Z,15.64
2022-11-21T10:07:04.306Z,15.60
2022-11-21T10:10:06.614Z,15.55
2022-11-21T10:13:35.356Z,15.61
2022-11-21T10:16:29.380Z,15.56
2022-11-21T10:19:10.222Z,15.80
2022-11-21T10:21:50.990Z,15.80
2022-11-21T10:24:33.415Z,15.98
2022-11-21T10:27:12.311Z,15.96
2022-11-21T10:29:50.934Z,15.93
2022-11-21T10:32:36.624Z,16.10
2022-11-21T10:35:15.638Z,16.46
2022-11-21T10:38:01.271Z,16.66
2022-11-21T10:40:47.984Z,16.79
2022-11-21T10:43:53.155Z,17.21
2022-11-21T10:46:20.470Z,18.33
2022-11-21T10:49:12.705Z,17.86
2022-11-21T10:51:57.871Z,17.43
2022-11-21T10:54:36.757Z,16.97
2022-11-21T10:57:17.312Z,16.69
2022-11-21T11:00:13.312Z,16.90
2022-11-21T11:02:44.917Z,17.29
2022-11-21T11:05:36.516Z,17.55
2022-11-21T11:08:11.120Z,17.87
2022-11-21T11:10:42.797Z,17.88
2022-11-21T11:13:51.954Z,17.49
2022-11-21T11:16:22.171Z,17.40
2022-11-21T11:19:05.918Z,17.33
2022-11-21T11:21:38.641Z,17.11
2022-11-21T11:24:11.268Z,17.49
2022-11-21T11:26:48.858Z,17.49
2022-11-21T11:29:26.705Z,17.44
2022-11-21T11:32:01.947Z,17.30
2022-11-21T11:35:17.786Z,17.25
2022-11-21T11:38:05.130Z,17.24
2022-11-21T11:40:31.948Z,16.94
2022-11-21T11:43:24.274Z,16.92
2022-11-21T11:46:31.779Z,17.19
2022-11-21T11:49:40.482Z,17.43
2022-11-21T11:52:08.906Z,17.42
2022-11-21T11:54:49.893Z,17.28
2022-11-21T11:57:20.721Z,17.18
2022-11-21T12:00:03.705Z,17.12
2022-11-21T12:02:54.701Z,17.08
2022-11-21T12:05:25.532Z,16.99
2022-11-21T12:11:28.028Z,16.95
2022-11-21T12:13:59.960Z,17.06
2022-11-21T12:16:27.577Z,16.87
2022-11-21T12:21:55.286Z,16.99
2022-11-21T12:24:22.643Z,16.95
2022-11-21T12:27:04.652Z,16.86
2022-11-21T12:29:50.161Z,16.65
2022-11-21T12:32:45.219Z,16.59
2022-11-21T12:35:15.064Z,16.67
2022-11-21T12:37:50.922Z,16.54
2022-11-21T12:40:30.126Z,16.39
2022-11-21T12:43:24.885Z,16.22
2022-11-21T12:46:39.773Z,16.41
2022-11-21T12:49:46.890Z,16.68
2022-11-21T12:52:44.764Z,16.40
2022-11-21T12:55:35.293Z,16.23
2022-11-21T12:58:35.330Z,16.04
2022-11-21T13:01:21.216Z,16.11
2022-11-21T13:04:02.895Z,16.02
2022-11-21T13:06:34.794Z,16.08
2022-11-21T13:09:08.184Z,16.05
2022-11-21T13:12:01.593Z,16.02
2022-11-21T13:14:36.823Z,16.01
2022-11-21T13:17:26.699Z,16.05
2022-11-21T13:19:59.708Z,16.09
2022-11-21T13:22:36.248Z,16.06
2022-11-21T13:25:04.306Z,16.01
2022-11-21T13:27:39.599Z,16.16
2022-11-21T13:30:10.633Z,16.04
2022-11-21T13:32:38.634Z,15.95
2022-11-21T13:35:50.605Z,15.99
2022-11-21T13:38:25.148Z,16.43
2022-11-21T13:41:11.018Z,16.46
2022-11-21T13:43:38.025Z,16.52
2022-11-21T13:46:05.061Z,16.57
2022-11-21T13:48:32.229Z,16.63
2022-11-21T13:51:01.757Z,16.42
2022-11-21T13:53:40.938Z,16.47
2022-11-21T13:56:26.424Z,16.56
2022-11-21T13:59:43.483Z,16.41
2022-11-21T14:02:53.965Z,16.34
2022-11-21T14:05:39.578Z,16.28
2022-11-21T14:08:33.120Z,16.29
2022-11-21T14:11:21.376Z,16.32
2022-11-21T14:13:54.578Z,16.33
2022-11-21T14:16:31.825Z,16.55
2022-11-21T14:18:59.168Z,16.43
2022-11-21T14:21:29.385Z,16.49
2022-11-21T14:24:06.710Z,16.28
2022-11-21T14:26:43.997Z,16.12
2022-11-21T14:29:41.058Z,16.09
2022-11-21T14:32:15.193Z,16.09
2022-11-21T14:34:42.572Z,16.21
2022-11-21T14:37:13.669Z,16.15
2022-11-21T14:39:44.699Z,16.18
2022-11-21T14:42:20.009Z,15.97
2022-11-21T14:44:49.438Z,15.64
2022-11-21T14:47:25.609Z,15.50
2022-11-21T14:50:07.399Z,15.20
2022-11-21T14:52:37.671Z,15.06
2022-11-21T14:55:37.244Z,14.85
2022-11-21T14:58:01.662Z,14.73
2022-11-21T15:00:58.504Z,14.58
2022-11-21T15:03:32.073Z,14.27
2022-11-21T15:10:11.584Z,14.08
2022-11-21T15:11:50.048Z,13.14
2022-11-21T15:14:53.951Z,12.89
2022-11-21T15:17:28.448Z,12.63
2022-11-21T15:20:21.418Z,12.40
2022-11-21T15:23:02.540Z,12.32
2022-11-21T15:26:01.225Z,12.37
2022-11-21T15:28:44.099Z,12.28
2022-11-21T15:31:22.496Z,12.09
2022-11-21T15:37:32.480Z,11.99
2022-11-21T15:40:02.575Z,12.10
2022-11-21T15:42:32.603Z,12.06
2022-11-21T15:45:21.283Z,12.01
2022-11-21T15:47:49.378Z,11.91
2022-11-21T15:50:17.370Z,11.81
2022-11-21T15:52:49.635Z,11.76
2022-11-21T15:55:33.825Z,11.73
2022-11-21T15:58:00.929Z,11.91
2022-11-21T16:00:27.991Z,11.83
2022-11-21T16:02:55.268Z,11.70
2022-11-21T16:05:24.815Z,11.73
2022-11-21T16:08:12.277Z,11.53
2022-11-21T16:10:39.211Z,11.53
2022-11-21T16:13:06.360Z,11.65
2022-11-21T16:15:38.214Z,11.70
2022-11-21T16:18:05.179Z,11.53
2022-11-21T16:20:35.841Z,11.65
2022-11-21T16:23:08.492Z,11.71
2022-11-21T16:25:35.647Z,11.54
2022-11-21T16:28:06.988Z,11.75
2022-11-21T16:30:34.488Z,11.57
2022-11-21T16:33:02.645Z,11.61
2022-11-21T16:35:29.636Z,11.43
2022-11-21T16:38:19.154Z,11.59
2022-11-21T16:41:00.255Z,11.45
2022-11-21T16:43:33.639Z,11.63
2022-11-21T16:49:03.563Z,11.85
2022-11-21T16:51:33.344Z,11.35
2022-11-21T16:54:04.373Z,11.38
2022-11-21T16:56:35.497Z,11.55
2022-11-21T16:59:02.598Z,11.28
2022-11-21T17:01:36.100Z,10.84
2022-11-21T17:04:03.387Z,10.63
2022-11-21T17:06:31.934Z,10.97
2022-11-21T17:09:16.166Z,11.33
2022-11-21T17:11:45.757Z,11.21
2022-11-21T17:14:13.105Z,11.35
2022-11-21T17:16:42.913Z,11.28
2022-11-21T17:19:11.892Z,11.43
2022-11-21T17:21:38.682Z,11.46
2022-11-21T17:24:13.854Z,11.14
2022-11-21T17:26:40.778Z,11.17
2022-11-21T17:29:08.172Z,11.16
2022-11-21T17:31:35.070Z,10.78
2022-11-21T17:34:01.942Z,10.81
2022-11-21T17:36:31.299Z,10.63
2022-11-21T17:38:58.542Z,10.64
2022-11-21T17:41:27.696Z,10.52
2022-11-21T17:44:00.037Z,10.81
2022-11-21T17:46:27.879Z,10.97
2022-11-21T17:48:58.774Z,11.06
2022-11-21T17:51:35.000Z,10.75
2022-11-21T17:54:09.354Z,10.75
2022-11-21T17:56:42.413Z,10.50
2022-11-21T17:59:13.536Z,10.43
2022-11-21T18:01:40.641Z,10.40
2022-11-21T18:04:14.819Z,10.80
2022-11-21T18:06:42.541Z,10.53
2022-11-21T18:09:15.314Z,10.54
2022-11-21T18:11:42.329Z,10.41
2022-11-21T18:14:23.509Z,10.29
2022-11-21T18:16:53.448Z,10.21
2022-11-21T18:19:21.328Z,11.08
2022-11-21T18:21:49.016Z,10.92
2022-11-21T18:24:15.811Z,11.19
2022-11-21T18:26:45.497Z,10.89
2022-11-21T18:29:35.286Z,11.80
2022-11-21T18:35:10.028Z,10.34
2022-11-21T18:37:38.174Z,10.32
2022-11-21T18:40:05.445Z,9.84
2022-11-21T18:42:32.927Z,9.88
2022-11-21T18:45:25.902Z,9.61
2022-11-21T18:47:53.079Z,9.51
2022-11-21T18:50:20.918Z,9.51
2022-11-21T18:52:50.485Z,9.61
2022-11-21T18:55:17.560Z,9.53
2022-11-21T18:57:44.565Z,9.44
2022-11-21T19:00:15.524Z,9.72
2022-11-21T19:02:43.160Z,9.77
2022-11-21T19:05:10.159Z,9.93
2022-11-21T19:07:37.005Z,9.65
2022-11-21T19:10:27.861Z,10.04
2022-11-21T19:13:00.084Z,9.83
2022-11-21T19:15:26.966Z,9.94
2022-11-21T19:17:57.123Z,9.88
2022-11-21T19:20:24.074Z,10.13
2022-11-21T19:23:08.303Z,9.96
2022-11-21T19:25:35.884Z,9.70
2022-11-21T19:28:03.657Z,9.94
2022-11-21T19:30:30.338Z,9.71
2022-11-21T19:32:59.136Z,10.19
2022-11-21T19:35:28.329Z,9.72
2022-11-21T19:37:55.533Z,9.69
2022-11-21T19:40:47.719Z,9.67
2022-11-21T19:43:27.101Z,9.69
2022-11-21T19:51:56.418Z,9.84
2022-11-21T20:00:13.027Z,10.04
2022-11-21T20:03:31.925Z,10.23
2022-11-21T20:06:08.421Z,9.85
2022-11-21T20:11:17.655Z,9.80
2022-11-21T20:13:54.762Z,9.71
2022-11-21T20:16:32.728Z,9.66
2022-11-21T20:19:05.841Z,9.69
2022-11-21T20:21:47.677Z,9.47
2022-11-21T20:24:15.379Z,9.62
2022-11-21T20:26:45.357Z,9.51
2022-11-21T20:29:19.499Z,9.71
2022-11-21T20:32:06.600Z,9.69
2022-11-21T20:37:26.551Z,9.40
2022-11-21T20:39:53.588Z,9.54
2022-11-21T20:42:20.842Z,9.42
2022-11-21T20:45:48.473Z,9.63
2022-11-21T20:47:38.743Z,9.16
2022-11-21T20:50:06.075Z,9.58
2022-11-21T20:55:25.521Z,9.53
2022-11-21T20:58:05.491Z,9.38
2022-11-21T21:00:34.942Z,9.33
2022-11-21T21:03:10.294Z,9.32
2022-11-21T21:05:37.934Z,9.25
2022-11-21T21:08:26.822Z,9.16
2022-11-21T21:11:30.581Z,9.13
2022-11-21T21:13:57.994Z,8.81
2022-11-21T21:16:42.159Z,9.16
2022-11-21T21:19:32.145Z,9.01
2022-11-21T21:22:05.256Z,8.99
2022-11-21T21:24:32.438Z,8.67
2022-11-21T21:27:35.705Z,8.63
2022-11-21T21:30:03.844Z,8.56
2022-11-21T21:32:32.877Z,8.73
2022-11-21T21:34:59.546Z,8.88
2022-11-21T21:37:33.141Z,8.71
2022-11-21T21:40:00.359Z,8.67
2022-11-21T21:42:28.170Z,8.64
2022-11-21T21:44:55.149Z,8.65
2022-11-21T21:47:30.549Z,8.66
2022-11-21T21:52:39.434Z,8.53
2022-11-21T21:55:08.660Z,8.74
2022-11-21T21:57:40.027Z,8.90
2022-11-21T22:00:10.641Z,8.68
2022-11-21T22:02:40.046Z,8.33
2022-11-21T22:05:11.902Z,8.32
2022-11-21T22:07:39.060Z,8.48
2022-11-21T22:10:15.076Z,8.26
2022-11-21T22:12:44.303Z,8.54
2022-11-21T22:15:11.304Z,8.33
2022-11-21T22:17:43.216Z,8.43
2022-11-21T22:20:12.579Z,8.60
2022-11-21T22:22:39.375Z,8.02
2022-11-21T22:25:11.932Z,8.09
2022-11-21T22:27:39.455Z,8.15
2022-11-21T22:30:36.327Z,7.94
2022-11-21T22:33:03.524Z,7.99
2022-11-21T22:35:40.530Z,8.01
2022-11-21T22:38:07.611Z,8.05
2022-11-21T22:40:34.319Z,8.01
2022-11-21T22:43:01.434Z,8.02
2022-11-21T22:45:30.667Z,8.18
2022-11-21T22:47:57.859Z,8.41
2022-11-21T22:50:28.147Z,8.33
2022-11-21T22:52:55.333Z,8.58
2022-11-21T22:55:22.136Z,8.45
2022-11-21T22:57:49.251Z,7.93
2022-11-21T23:00:17.166Z,7.67
2022-11-21T23:02:44.819Z,7.78
2022-11-21T23:05:11.657Z,7.81
2022-11-21T23:07:39.070Z,7.97
2022-11-21T23:10:06.496Z,8.03
2022-11-21T23:12:33.367Z,7.95
2022-11-21T23:15:00.515Z,7.72
2022-11-21T23:17:27.465Z,8.08
2022-11-21T23:19:54.415Z,7.97
2022-11-21T23:22:21.509Z,8.03
2022-11-21T23:24:52.049Z,8.28
2022-11-21T23:27:19.382Z,7.96
2022-11-21T23:29:46.403Z,8.07
2022-11-21T23:32:13.192Z,7.67
2022-11-21T23:34:40.306Z,7.72
2022-11-21T23:37:07.186Z,7.20
2022-11-21T23:39:34.087Z,7.16
2022-11-21T23:42:01.054Z,7.40
2022-11-21T23:44:36.874Z,7.54
2022-11-21T23:47:04.187Z,7.24
2022-11-21T23:49:31.427Z,7.28
2022-11-21T23:51:58.870Z,7.10
2022-11-21T23:54:25.915Z,7.17
2022-11-21T23:56:53.031Z,7.30
2022-11-21T23:59:20.005Z,7.24
